sensor_id;sensor_type;location;lat;lon;timestamp;pressure;altitude;pressure_sealevel;temperature;humidity
11223;BME280;5668;52.012;8.724;2023-12-28T00:00:36;99506.00;;;10.12;86.14
11223;BME280;5668;52.012;8.724;2023-12-28T00:03:03;99518.03;;;10.13;87.04
11223;BME280;5668;52.012;8.724;2023-12-28T00:05:30;99534.56;;;10.12;88.05
11223;BME280;5668;52.012;8.724;2023-12-28T00:07:58;99539.06;;;10.09;88.75
11223;BME280;5668;52.012;8.724;2023-12-28T00:10:25;99532.22;;;10.08;89.58
11223;BME280;5668;52.012;8.724;2023-12-28T00:12:53;99537.66;;;10.05;90.90
11223;BME280;5668;52.012;8.724;2023-12-28T00:15:21;99531.66;;;10.05;91.38
11223;BME280;5668;52.012;8.724;2023-12-28T00:17:49;99524.81;;;10.04;92.06
11223;BME280;5668;52.012;8.724;2023-12-28T00:20:17;99533.75;;;10.00;93.13
11223;BME280;5668;52.012;8.724;2023-12-28T00:22:45;99533.91;;;9.98;93.99
11223;BME280;5668;52.012;8.724;2023-12-28T00:25:13;99531.53;;;9.95;94.85
11223;BME280;5668;52.012;8.724;2023-12-28T00:27:41;99526.34;;;9.95;95.63
11223;BME280;5668;52.012;8.724;2023-12-28T00:30:09;99539.34;;;9.95;96.07
11223;BME280;5668;52.012;8.724;2023-12-28T00:32:36;99543.81;;;9.93;96.63
11223;BME280;5668;52.012;8.724;2023-12-28T00:35:05;99538.88;;;9.90;97.36
11223;BME280;5668;52.012;8.724;2023-12-28T00:37:32;99539.81;;;9.89;97.67
11223;BME280;5668;52.012;8.724;2023-12-28T00:39:59;99536.41;;;9.89;98.05
11223;BME280;5668;52.012;8.724;2023-12-28T00:42:26;99528.84;;;9.86;98.87
11223;BME280;5668;52.012;8.724;2023-12-28T00:44:54;99539.22;;;9.86;99.41
11223;BME280;5668;52.012;8.724;2023-12-28T00:47:21;99550.31;;;9.88;100.00
11223;BME280;5668;52.012;8.724;2023-12-28T00:49:48;99550.44;;;9.86;100.00
11223;BME280;5668;52.012;8.724;2023-12-28T00:52:17;99553.84;;;9.87;100.00
11223;BME280;5668;52.012;8.724;2023-12-28T00:54:44;99562.59;;;9.86;100.00
11223;BME280;5668;52.012;8.724;2023-12-28T00:57:11;99558.81;;;9.90;100.00
11223;BME280;5668;52.012;8.724;2023-12-28T00:59:38;99552.81;;;9.89;100.00
11223;BME280;5668;52.012;8.724;2023-12-28T01:02:06;99552.09;;;9.87;100.00
11223;BME280;5668;52.012;8.724;2023-12-28T01:04:33;99558.22;;;9.86;100.00
11223;BME280;5668;52.012;8.724;2023-12-28T01:07:00;99543.25;;;9.90;100.00
11223;BME280;5668;52.012;8.724;2023-12-28T01:09:32;99562.91;;;9.92;100.00
11223;BME280;5668;52.012;8.724;2023-12-28T01:11:59;99542.16;;;9.92;100.00
11223;BME280;5668;52.012;8.724;2023-12-28T01:14:26;99545.47;;;9.94;100.00
11223;BME280;5668;52.012;8.724;2023-12-28T01:16:54;99556.56;;;9.96;100.00
11223;BME280;5668;52.012;8.724;2023-12-28T01:19:21;99559.97;;;9.97;100.00
11223;BME280;5668;52.012;8.724;2023-12-28T01:21:49;99549.47;;;9.98;100.00
11223;BME280;5668;52.012;8.724;2023-12-28T01:24:16;99548.53;;;9.99;100.00
11223;BME280;5668;52.012;8.724;2023-12-28T01:26:45;99558.09;;;9.99;100.00
11223;BME280;5668;52.012;8.724;2023-12-28T01:29:12;99556.44;;;9.98;100.00
11223;BME280;5668;52.012;8.724;2023-12-28T01:31:39;99559.97;;;9.97;100.00
11223;BME280;5668;52.012;8.724;2023-12-28T01:34:07;99572.69;;;10.00;100.00
11223;BME280;5668;52.012;8.724;2023-12-28T01:36:35;99568.22;;;10.02;100.00
11223;BME280;5668;52.012;8.724;2023-12-28T01:39:02;99583.56;;;10.05;100.00
11223;BME280;5668;52.012;8.724;2023-12-28T01:41:30;99582.63;;;10.06;100.00
11223;BME280;5668;52.012;8.724;2023-12-28T01:43:58;99580.97;;;10.05;100.00
11223;BME280;5668;52.012;8.724;2023-12-28T01:46:26;99584.50;;;10.04;100.00
11223;BME280;5668;52.012;8.724;2023-12-28T01:48:53;99581.78;;;10.05;100.00
11223;BME280;5668;52.012;8.724;2023-12-28T01:51:21;99600.53;;;10.09;100.00
11223;BME280;5668;52.012;8.724;2023-12-28T01:53:50;99585.66;;;10.11;100.00
11223;BME280;5668;52.012;8.724;2023-12-28T01:56:19;99576.00;;;10.13;100.00
11223;BME280;5668;52.012;8.724;2023-12-28T01:58:48;99577.66;;;10.14;100.00
11223;BME280;5668;52.012;8.724;2023-12-28T02:01:17;99589.78;;;10.14;100.00
11223;BME280;5668;52.012;8.724;2023-12-28T02:03:45;99582.00;;;10.14;100.00
11223;BME280;5668;52.012;8.724;2023-12-28T02:06:14;99586.13;;;10.16;100.00
11223;BME280;5668;52.012;8.724;2023-12-28T02:08:43;99588.25;;;10.11;100.00
11223;BME280;5668;52.012;8.724;2023-12-28T02:11:10;99602.91;;;10.12;100.00
11223;BME280;5668;52.012;8.724;2023-12-28T02:13:37;99600.88;;;10.16;100.00
11223;BME280;5668;52.012;8.724;2023-12-28T02:16:10;99596.50;;;10.16;100.00
11223;BME280;5668;52.012;8.724;2023-12-28T02:18:43;99605.97;;;10.17;100.00
11223;BME280;5668;52.012;8.724;2023-12-28T02:21:11;99616.25;;;10.19;100.00
11223;BME280;5668;52.012;8.724;2023-12-28T02:23:45;99612.81;;;10.18;100.00
11223;BME280;5668;52.012;8.724;2023-12-28T02:26:14;99612.91;;;10.17;100.00
11223;BME280;5668;52.012;8.724;2023-12-28T02:28:41;99611.03;;;10.19;100.00
11223;BME280;5668;52.012;8.724;2023-12-28T02:31:12;99623.91;;;10.20;100.00
11223;BME280;5668;52.012;8.724;2023-12-28T02:33:48;99613.53;;;10.20;100.00
11223;BME280;5668;52.012;8.724;2023-12-28T02:36:17;99625.56;;;10.21;100.00
11223;BME280;5668;52.012;8.724;2023-12-28T02:38:47;99622.03;;;10.22;100.00
11223;BME280;5668;52.012;8.724;2023-12-28T02:41:18;99620.13;;;10.24;100.00
11223;BME280;5668;52.012;8.724;2023-12-28T02:43:47;99623.66;;;10.23;100.00
11223;BME280;5668;52.012;8.724;2023-12-28T02:46:15;99633.09;;;10.24;100.00
11223;BME280;5668;52.012;8.724;2023-12-28T02:48:43;99619.78;;;10.18;100.00
11223;BME280;5668;52.012;8.724;2023-12-28T02:51:10;99625.56;;;10.21;100.00
11223;BME280;5668;52.012;8.724;2023-12-28T02:53:38;99632.66;;;10.19;100.00
11223;BME280;5668;52.012;8.724;2023-12-28T02:56:06;99634.88;;;10.24;100.00
11223;BME280;5668;52.012;8.724;2023-12-28T02:58:34;99621.19;;;10.22;100.00
11223;BME280;5668;52.012;8.724;2023-12-28T03:01:02;99628.16;;;10.21;100.00
11223;BME280;5668;52.012;8.724;2023-12-28T03:03:29;99629.94;;;10.21;100.00
11223;BME280;5668;52.012;8.724;2023-12-28T03:05:56;99623.91;;;10.20;100.00
11223;BME280;5668;52.012;8.724;2023-12-28T03:08:23;99624.16;;;10.17;100.00
11223;BME280;5668;52.012;8.724;2023-12-28T03:10:50;99620.59;;;10.18;100.00
11223;BME280;5668;52.012;8.724;2023-12-28T03:13:18;99622.25;;;10.19;100.00
11223;BME280;5668;52.012;8.724;2023-12-28T03:15:47;99625.81;;;10.18;100.00
11223;BME280;5668;52.012;8.724;2023-12-28T03:18:14;99622.16;;;10.21;100.00
11223;BME280;5668;52.012;8.724;2023-12-28T03:20:41;99618.72;;;10.20;100.00
11223;BME280;5668;52.012;8.724;2023-12-28T03:23:08;99613.53;;;10.20;100.00
11223;BME280;5668;52.012;8.724;2023-12-28T03:25:38;99620.59;;;10.18;100.00
11223;BME280;5668;52.012;8.724;2023-12-28T03:28:05;99607.25;;;10.23;100.00
11223;BME280;5668;52.012;8.724;2023-12-28T03:30:32;99612.59;;;10.21;100.00
11223;BME280;5668;52.012;8.724;2023-12-28T03:33:01;99610.94;;;10.20;100.00
11223;BME280;5668;52.012;8.724;2023-12-28T03:35:28;99610.81;;;10.22;100.00
11223;BME280;5668;52.012;8.724;2023-12-28T03:37:55;99613.28;;;10.23;100.00
11223;BME280;5668;52.012;8.724;2023-12-28T03:40:23;99612.00;;;10.18;100.00
11223;BME280;5668;52.012;8.724;2023-12-28T03:42:50;99608.34;;;10.20;100.00
11223;BME280;5668;52.012;8.724;2023-12-28T03:45:17;99599.59;;;10.21;100.00
11223;BME280;5668;52.012;8.724;2023-12-28T03:47:44;99591.00;;;10.21;100.00
11223;BME280;5668;52.012;8.724;2023-12-28T03:50:14;99590.88;;;10.22;100.00
11223;BME280;5668;52.012;8.724;2023-12-28T03:52:43;99597.94;;;10.20;100.00
11223;BME280;5668;52.012;8.724;2023-12-28T03:55:10;99593.69;;;10.19;100.00
11223;BME280;5668;52.012;8.724;2023-12-28T03:57:37;99599.47;;;10.23;100.00
11223;BME280;5668;52.012;8.724;2023-12-28T04:00:06;99602.06;;;10.23;100.00
11223;BME280;5668;52.012;8.724;2023-12-28T04:02:33;99609.03;;;10.22;100.00
11223;BME280;5668;52.012;8.724;2023-12-28T04:05:00;99614.09;;;10.24;100.00
11223;BME280;5668;52.012;8.724;2023-12-28T04:07:29;99598.78;;;10.21;100.00
11223;BME280;5668;52.012;8.724;2023-12-28T04:09:57;99588.13;;;10.24;100.00
11223;BME280;5668;52.012;8.724;2023-12-28T04:12:24;99598.78;;;10.21;100.00
11223;BME280;5668;52.012;8.724;2023-12-28T04:14:52;99595.81;;;10.25;100.00
11223;BME280;5668;52.012;8.724;2023-12-28T04:17:19;99591.44;;;10.26;100.00
11223;BME280;5668;52.012;8.724;2023-12-28T04:19:46;99588.13;;;10.24;100.00
11223;BME280;5668;52.012;8.724;2023-12-28T04:22:13;99582.09;;;10.23;100.00
11223;BME280;5668;52.012;8.724;2023-12-28T04:24:42;99584.59;;;10.25;100.00
11223;BME280;5668;52.012;8.724;2023-12-28T04:27:09;99589.34;;;10.20;100.00
11223;BME280;5668;52.012;8.724;2023-12-28T04:29:36;99593.59;;;10.21;100.00
11223;BME280;5668;52.012;8.724;2023-12-28T04:32:04;99581.88;;;10.26;100.00
11223;BME280;5668;52.012;8.724;2023-12-28T04:34:31;99573.38;;;10.24;100.00
11223;BME280;5668;52.012;8.724;2023-12-28T04:36:58;99572.31;;;10.27;100.00
11223;BME280;5668;52.012;8.724;2023-12-28T04:39:25;99570.66;;;10.26;100.00
11223;BME280;5668;52.012;8.724;2023-12-28T04:41:54;99567.13;;;10.27;100.00
11223;BME280;5668;52.012;8.724;2023-12-28T04:44:21;99569.72;;;10.27;100.00
11223;BME280;5668;52.012;8.724;2023-12-28T04:46:48;99575.03;;;10.25;100.00
11223;BME280;5668;52.012;8.724;2023-12-28T04:49:15;99572.19;;;10.28;100.00
11223;BME280;5668;52.012;8.724;2023-12-28T04:51:43;99564.53;;;10.27;100.00
11223;BME280;5668;52.012;8.724;2023-12-28T04:54:10;99567.69;;;10.30;100.00
11223;BME280;5668;52.012;8.724;2023-12-28T04:56:38;99570.28;;;10.30;100.00
11223;BME280;5668;52.012;8.724;2023-12-28T04:59:06;99580.22;;;10.25;100.00
11223;BME280;5668;52.012;8.724;2023-12-28T05:01:33;99576.91;;;10.23;100.00
11223;BME280;5668;52.012;8.724;2023-12-28T05:04:07;99579.28;;;10.26;100.00
11223;BME280;5668;52.012;8.724;2023-12-28T05:06:34;99584.09;;;10.31;100.00
11223;BME280;5668;52.012;8.724;2023-12-28T05:09:01;99584.44;;;10.37;100.00
11223;BME280;5668;52.012;8.724;2023-12-28T05:11:28;99593.41;;;10.33;100.00
11223;BME280;5668;52.012;8.724;2023-12-28T05:13:56;99597.66;;;10.34;100.00
11223;BME280;5668;52.012;8.724;2023-12-28T05:16:24;99600.25;;;10.34;100.00
11223;BME280;5668;52.012;8.724;2023-12-28T05:18:52;99609.22;;;10.30;100.00
11223;BME280;5668;52.012;8.724;2023-12-28T05:21:19;99612.31;;;10.35;100.00
11223;BME280;5668;52.012;8.724;2023-12-28T05:23:46;99616.69;;;10.35;100.00
11223;BME280;5668;52.012;8.724;2023-12-28T05:26:14;99611.47;;;10.35;100.00
11223;BME280;5668;52.012;8.724;2023-12-28T05:28:41;99619.38;;;10.33;100.00
11223;BME280;5668;52.012;8.724;2023-12-28T05:31:08;99618.81;;;10.30;100.00
11223;BME280;5668;52.012;8.724;2023-12-28T05:33:37;99618.56;;;10.33;100.00
11223;BME280;5668;52.012;8.724;2023-12-28T05:36:05;99637.94;;;10.29;100.00
11223;BME280;5668;52.012;8.724;2023-12-28T05:38:32;99615.84;;;10.34;100.00
11223;BME280;5668;52.012;8.724;2023-12-28T05:40:59;99621.88;;;10.35;100.00
11223;BME280;5668;52.012;8.724;2023-12-28T05:43:26;99631.88;;;10.39;100.00
11223;BME280;5668;52.012;8.724;2023-12-28T05:45:54;99637.78;;;10.41;100.00
11223;BME280;5668;52.012;8.724;2023-12-28T05:48:21;99634.47;;;10.39;100.00
11223;BME280;5668;52.012;8.724;2023-12-28T05:50:49;99637.78;;;10.41;100.00
11223;BME280;5668;52.012;8.724;2023-12-28T05:53:16;99637.06;;;10.39;100.00
11223;BME280;5668;52.012;8.724;2023-12-28T05:55:44;99642.97;;;10.41;100.00
11223;BME280;5668;52.012;8.724;2023-12-28T05:58:11;99649.13;;;10.40;100.00
11223;BME280;5668;52.012;8.724;2023-12-28T06:00:38;99647.22;;;10.42;100.00
11223;BME280;5668;52.012;8.724;2023-12-28T06:03:06;99647.94;;;10.44;100.00
11223;BME280;5668;52.012;8.724;2023-12-28T06:05:33;99649.81;;;10.42;100.00
11223;BME280;5668;52.012;8.724;2023-12-28T06:08:01;99644.38;;;10.45;100.00
11223;BME280;5668;52.012;8.724;2023-12-28T06:10:29;99654.06;;;10.43;100.00
11223;BME280;5668;52.012;8.724;2023-12-28T06:12:56;99654.75;;;10.45;100.00
11223;BME280;5668;52.012;8.724;2023-12-28T06:15:23;99661.88;;;10.43;99.71
11223;BME280;5668;52.012;8.724;2023-12-28T06:17:50;99664.69;;;10.40;99.71
11223;BME280;5668;52.012;8.724;2023-12-28T06:20:18;99672.50;;;10.40;100.00
11223;BME280;5668;52.012;8.724;2023-12-28T06:22:46;99672.25;;;10.43;99.65
11223;BME280;5668;52.012;8.724;2023-12-28T06:25:16;99678.41;;;10.42;99.92
11223;BME280;5668;52.012;8.724;2023-12-28T06:27:43;99678.75;;;10.38;99.96
11223;BME280;5668;52.012;8.724;2023-12-28T06:30:12;99675.81;;;10.42;100.00
11223;BME280;5668;52.012;8.724;2023-12-28T06:32:39;99687.63;;;10.35;100.00
11223;BME280;5668;52.012;8.724;2023-12-28T06:35:07;99685.25;;;10.32;100.00
11223;BME280;5668;52.012;8.724;2023-12-28T06:37:34;99677.25;;;10.35;100.00
11223;BME280;5668;52.012;8.724;2023-12-28T06:40:02;99674.38;;;10.38;100.00
11223;BME280;5668;52.012;8.724;2023-12-28T06:42:31;99687.38;;;10.38;100.00
11223;BME280;5668;52.012;8.724;2023-12-28T06:44:58;99683.16;;;10.37;100.00
11223;BME280;5668;52.012;8.724;2023-12-28T06:47:25;99689.84;;;10.40;100.00
11223;BME280;5668;52.012;8.724;2023-12-28T06:49:52;99687.59;;;10.46;99.66
11223;BME280;5668;52.012;8.724;2023-12-28T06:52:19;99699.88;;;10.44;99.91
11223;BME280;5668;52.012;8.724;2023-12-28T06:54:47;99689.50;;;10.44;99.69
11223;BME280;5668;52.012;8.724;2023-12-28T06:57:14;99686.75;;;10.46;99.24
11223;BME280;5668;52.012;8.724;2023-12-28T06:59:42;99679.13;;;10.44;99.84
11223;BME280;5668;52.012;8.724;2023-12-28T07:02:09;99689.50;;;10.44;99.05
11223;BME280;5668;52.012;8.724;2023-12-28T07:04:37;99679.78;;;10.46;99.22
11223;BME280;5668;52.012;8.724;2023-12-28T07:07:04;99673.91;;;10.44;99.20
11223;BME280;5668;52.012;8.724;2023-12-28T07:09:31;99683.34;;;10.45;99.12
11223;BME280;5668;52.012;8.724;2023-12-28T07:11:58;99679.69;;;10.48;99.14
11223;BME280;5668;52.012;8.724;2023-12-28T07:14:26;99681.31;;;10.49;99.23
11223;BME280;5668;52.012;8.724;2023-12-28T07:16:55;99678.63;;;10.51;98.84
11223;BME280;5668;52.012;8.724;2023-12-28T07:19:22;99689.84;;;10.51;98.55
11223;BME280;5668;52.012;8.724;2023-12-28T07:21:49;99683.31;;;10.57;98.52
11223;BME280;5668;52.012;8.724;2023-12-28T07:24:16;99686.84;;;10.56;98.26
11223;BME280;5668;52.012;8.724;2023-12-28T07:26:43;99684.38;;;10.54;98.10
11223;BME280;5668;52.012;8.724;2023-12-28T07:29:10;99689.00;;;10.51;97.75
11223;BME280;5668;52.012;8.724;2023-12-28T07:31:38;99680.50;;;10.48;98.26
11223;BME280;5668;52.012;8.724;2023-12-28T07:34:06;99687.34;;;10.50;98.17
11223;BME280;5668;52.012;8.724;2023-12-28T07:36:34;99678.50;;;10.52;97.42
11223;BME280;5668;52.012;8.724;2023-12-28T07:39:02;99669.63;;;10.55;97.63
11223;BME280;5668;52.012;8.724;2023-12-28T07:41:29;99675.06;;;10.52;97.54
11223;BME280;5668;52.012;8.724;2023-12-28T07:43:56;99702.56;;;10.54;97.17
11223;BME280;5668;52.012;8.724;2023-12-28T07:46:23;99690.91;;;10.48;97.26
11223;BME280;5668;52.012;8.724;2023-12-28T07:48:51;99697.03;;;10.47;96.56
11223;BME280;5668;52.012;8.724;2023-12-28T07:51:19;99711.69;;;10.48;96.79
11223;BME280;5668;52.012;8.724;2023-12-28T07:53:46;99708.63;;;10.43;96.83
11223;BME280;5668;52.012;8.724;2023-12-28T07:56:14;99713.56;;;10.46;96.92
11223;BME280;5668;52.012;8.724;2023-12-28T07:58:41;99718.75;;;10.46;96.50
11223;BME280;5668;52.012;8.724;2023-12-28T08:01:10;99726.09;;;10.41;96.46
11223;BME280;5668;52.012;8.724;2023-12-28T08:03:37;99722.78;;;10.39;96.68
11223;BME280;5668;52.012;8.724;2023-12-28T08:06:05;99727.28;;;10.37;96.61
11223;BME280;5668;52.012;8.724;2023-12-28T08:08:34;99733.19;;;10.39;96.52
11223;BME280;5668;52.012;8.724;2023-12-28T08:11:02;99732.22;;;10.40;95.97
11223;BME280;5668;52.012;8.724;2023-12-28T08:13:29;99728.56;;;10.43;96.07
11223;BME280;5668;52.012;8.724;2023-12-28T08:15:56;99732.69;;;10.45;96.42
11223;BME280;5668;52.012;8.724;2023-12-28T08:18:24;99731.41;;;10.40;96.05
11223;BME280;5668;52.012;8.724;2023-12-28T08:20:51;99727.28;;;10.37;95.94
11223;BME280;5668;52.012;8.724;2023-12-28T08:23:18;99725.28;;;10.41;95.87
11223;BME280;5668;52.012;8.724;2023-12-28T08:25:47;99736.72;;;10.38;95.56
11223;BME280;5668;52.012;8.724;2023-12-28T08:28:14;99734.59;;;10.43;95.31
11223;BME280;5668;52.012;8.724;2023-12-28T08:30:43;99740.03;;;10.40;95.41
11223;BME280;5668;52.012;8.724;2023-12-28T08:33:10;99738.97;;;10.43;95.43
11223;BME280;5668;52.012;8.724;2023-12-28T08:35:37;99733.19;;;10.39;95.02
11223;BME280;5668;52.012;8.724;2023-12-28T08:38:04;99740.63;;;10.44;94.58
11223;BME280;5668;52.012;8.724;2023-12-28T08:40:32;99743.06;;;10.45;95.12
11223;BME280;5668;52.012;8.724;2023-12-28T08:43:00;99739.53;;;10.46;94.87
11223;BME280;5668;52.012;8.724;2023-12-28T08:45:27;99742.50;;;10.42;95.22
11223;BME280;5668;52.012;8.724;2023-12-28T08:47:55;99740.75;;;10.42;94.82
11223;BME280;5668;52.012;8.724;2023-12-28T08:50:22;99732.94;;;10.42;94.62
11223;BME280;5668;52.012;8.724;2023-12-28T08:52:49;99727.75;;;10.42;94.53
11223;BME280;5668;52.012;8.724;2023-12-28T08:55:17;99734.59;;;10.43;94.70
11223;BME280;5668;52.012;8.724;2023-12-28T08:57:44;99734.59;;;10.43;94.06
11223;BME280;5668;52.012;8.724;2023-12-28T09:00:13;99733.66;;;10.44;94.30
11223;BME280;5668;52.012;8.724;2023-12-28T09:02:42;99740.84;;;10.41;93.84
11223;BME280;5668;52.012;8.724;2023-12-28T09:05:10;99750.53;;;10.50;93.87
11223;BME280;5668;52.012;8.724;2023-12-28T09:07:37;99761.75;;;10.51;93.50
11223;BME280;5668;52.012;8.724;2023-12-28T09:10:09;99758.06;;;10.53;94.07
11223;BME280;5668;52.012;8.724;2023-12-28T09:12:37;99776.63;;;10.60;94.06
11223;BME280;5668;52.012;8.724;2023-12-28T09:15:05;99767.84;;;10.61;94.02
11223;BME280;5668;52.012;8.724;2023-12-28T09:17:34;99775.78;;;10.59;93.62
11223;BME280;5668;52.012;8.724;2023-12-28T09:20:02;99771.53;;;10.58;93.99
11223;BME280;5668;52.012;8.724;2023-12-28T09:22:32;99770.59;;;10.59;93.73
11223;BME280;5668;52.012;8.724;2023-12-28T09:25:00;99764.31;;;10.62;93.52
11223;BME280;5668;52.012;8.724;2023-12-28T09:27:27;99763.38;;;10.63;93.51
11223;BME280;5668;52.012;8.724;2023-12-28T09:29:54;99767.84;;;10.61;93.19
11223;BME280;5668;52.012;8.724;2023-12-28T09:32:21;99773.75;;;10.63;92.89
11223;BME280;5668;52.012;8.724;2023-12-28T09:34:50;99776.25;;;10.64;92.71
11223;BME280;5668;52.012;8.724;2023-12-28T09:37:17;99773.28;;;10.69;92.91
11223;BME280;5668;52.012;8.724;2023-12-28T09:39:44;99784.84;;;10.76;93.38
11223;BME280;5668;52.012;8.724;2023-12-28T09:42:17;99778.69;;;10.77;93.13
11223;BME280;5668;52.012;8.724;2023-12-28T09:44:49;99790.50;;;10.81;92.74
11223;BME280;5668;52.012;8.724;2023-12-28T09:47:17;99795.44;;;10.84;92.73
11223;BME280;5668;52.012;8.724;2023-12-28T09:49:44;99781.50;;;10.85;92.89
11223;BME280;5668;52.012;8.724;2023-12-28T09:52:13;99785.38;;;10.91;92.66
11223;BME280;5668;52.012;8.724;2023-12-28T09:54:41;99777.47;;;10.92;92.53
11223;BME280;5668;52.012;8.724;2023-12-28T09:57:09;99766.25;;;10.92;92.46
11223;BME280;5668;52.012;8.724;2023-12-28T09:59:36;99758.22;;;10.95;92.22
11223;BME280;5668;52.012;8.724;2023-12-28T10:02:05;99752.06;;;10.96;92.74
11223;BME280;5668;52.012;8.724;2023-12-28T10:04:32;99743.69;;;10.92;92.14
11223;BME280;5668;52.012;8.724;2023-12-28T10:07:00;99756.69;;;10.92;92.11
11223;BME280;5668;52.012;8.724;2023-12-28T10:09:29;99754.28;;;11.00;92.27
11223;BME280;5668;52.012;8.724;2023-12-28T10:11:56;99753.78;;;11.06;91.79
11223;BME280;5668;52.012;8.724;2023-12-28T10:14:24;99747.75;;;11.06;92.35
11223;BME280;5668;52.012;8.724;2023-12-28T10:16:51;99746.69;;;11.08;92.23
11223;BME280;5668;52.012;8.724;2023-12-28T10:19:22;99744.53;;;11.13;91.77
11223;BME280;5668;52.012;8.724;2023-12-28T10:21:49;99760.16;;;11.13;91.77
11223;BME280;5668;52.012;8.724;2023-12-28T10:24:17;99744.31;;;11.16;91.33
11223;BME280;5668;52.012;8.724;2023-12-28T10:26:45;99747.34;;;11.21;91.34
11223;BME280;5668;52.012;8.724;2023-12-28T10:29:12;99752.09;;;11.16;91.05
11223;BME280;5668;52.012;8.724;2023-12-28T10:31:42;99760.63;;;11.18;91.06
11223;BME280;5668;52.012;8.724;2023-12-28T10:34:10;99750.66;;;11.23;90.91
11223;BME280;5668;52.012;8.724;2023-12-28T10:36:39;99757.28;;;11.28;91.40
11223;BME280;5668;52.012;8.724;2023-12-28T10:39:10;99758.66;;;11.32;91.86
11223;BME280;5668;52.012;8.724;2023-12-28T10:41:41;99756.78;;;11.34;91.22
11223;BME280;5668;52.012;8.724;2023-12-28T10:44:14;99750.75;;;11.33;90.74
11223;BME280;5668;52.012;8.724;2023-12-28T10:46:43;99755.44;;;11.39;90.75
11223;BME280;5668;52.012;8.724;2023-12-28T10:49:12;99756.25;;;11.40;90.96
11223;BME280;5668;52.012;8.724;2023-12-28T10:51:42;99765.72;;;11.41;90.52
11223;BME280;5668;52.012;8.724;2023-12-28T10:54:23;99765.44;;;11.44;91.05
11223;BME280;5668;52.012;8.724;2023-12-28T10:56:59;99765.44;;;11.44;90.78
11223;BME280;5668;52.012;8.724;2023-12-28T10:59:39;99755.75;;;11.46;90.69
11223;BME280;5668;52.012;8.724;2023-12-28T11:02:15;99750.78;;;11.43;90.71
11223;BME280;5668;52.012;8.724;2023-12-28T11:04:49;99745.47;;;11.44;89.95
11223;BME280;5668;52.012;8.724;2023-12-28T11:07:19;99746.88;;;11.48;90.19
11223;BME280;5668;52.012;8.724;2023-12-28T11:09:48;99752.91;;;11.49;90.20
11223;BME280;5668;52.012;8.724;2023-12-28T11:12:17;99744.00;;;11.51;90.45
11223;BME280;5668;52.012;8.724;2023-12-28T11:14:48;99753.34;;;11.54;90.17
11223;BME280;5668;52.012;8.724;2023-12-28T11:17:17;99743.75;;;11.54;90.06
11223;BME280;5668;52.012;8.724;2023-12-28T11:19:45;99744.31;;;11.58;90.07
11223;BME280;5668;52.012;8.724;2023-12-28T11:22:13;99747.50;;;11.61;89.97
11223;BME280;5668;52.012;8.724;2023-12-28T11:24:41;99740.28;;;11.65;90.48
11223;BME280;5668;52.012;8.724;2023-12-28T11:27:08;99743.81;;;11.64;89.91
11223;BME280;5668;52.012;8.724;2023-12-28T11:29:35;99752.19;;;11.68;90.04
11223;BME280;5668;52.012;8.724;2023-12-28T11:32:04;99750.41;;;11.68;89.08
11223;BME280;5668;52.012;8.724;2023-12-28T11:34:32;99746.16;;;11.67;89.81
11223;BME280;5668;52.012;8.724;2023-12-28T11:37:02;99751.00;;;11.72;89.71
11223;BME280;5668;52.012;8.724;2023-12-28T11:39:32;99741.41;;;11.72;89.48
11223;BME280;5668;52.012;8.724;2023-12-28T11:42:01;99749.94;;;11.74;89.48
11223;BME280;5668;52.012;8.724;2023-12-28T11:44:29;99742.81;;;11.76;89.56
11223;BME280;5668;52.012;8.724;2023-12-28T11:46:56;99743.03;;;11.73;89.95
11223;BME280;5668;52.012;8.724;2023-12-28T11:49:27;99744.72;;;11.74;88.69
11223;BME280;5668;52.012;8.724;2023-12-28T11:51:56;99738.66;;;11.74;88.68
11223;BME280;5668;52.012;8.724;2023-12-28T11:54:25;99745.44;;;11.76;88.21
11223;BME280;5668;52.012;8.724;2023-12-28T11:56:53;99738.88;;;11.82;87.56
11223;BME280;5668;52.012;8.724;2023-12-28T11:59:20;99743.97;;;11.83;87.75
11223;BME280;5668;52.012;8.724;2023-12-28T12:01:50;99743.72;;;11.86;87.98
11223;BME280;5668;52.012;8.724;2023-12-28T12:04:18;99737.56;;;11.87;88.27
11223;BME280;5668;52.012;8.724;2023-12-28T12:06:47;99741.78;;;11.88;87.93
11223;BME280;5668;52.012;8.724;2023-12-28T12:09:15;99740.41;;;11.84;88.18
11223;BME280;5668;52.012;8.724;2023-12-28T12:11:44;99737.56;;;11.87;88.30
11223;BME280;5668;52.012;8.724;2023-12-28T12:14:11;99735.19;;;11.84;87.92
11223;BME280;5668;52.012;8.724;2023-12-28T12:16:39;99732.47;;;11.86;88.06
11223;BME280;5668;52.012;8.724;2023-12-28T12:19:06;99730.81;;;11.85;88.23
11223;BME280;5668;52.012;8.724;2023-12-28T12:21:34;99734.25;;;11.85;87.90
11223;BME280;5668;52.012;8.724;2023-12-28T12:24:03;99720.41;;;11.85;87.73
11223;BME280;5668;52.012;8.724;2023-12-28T12:26:30;99720.94;;;11.88;87.53
11223;BME280;5668;52.012;8.724;2023-12-28T12:28:58;99720.00;;;11.89;87.74
11223;BME280;5668;52.012;8.724;2023-12-28T12:31:25;99717.16;;;11.92;87.35
11223;BME280;5668;52.012;8.724;2023-12-28T12:33:53;99714.41;;;11.94;87.07
11223;BME280;5668;52.012;8.724;2023-12-28T12:36:20;99717.97;;;11.93;87.16
11223;BME280;5668;52.012;8.724;2023-12-28T12:38:48;99713.13;;;11.88;86.74
11223;BME280;5668;52.012;8.724;2023-12-28T12:41:16;99711.34;;;11.89;86.62
11223;BME280;5668;52.012;8.724;2023-12-28T12:43:45;99710.28;;;11.91;87.15
11223;BME280;5668;52.012;8.724;2023-12-28T12:46:13;99716.19;;;11.93;86.73
11223;BME280;5668;52.012;8.724;2023-12-28T12:48:40;99709.22;;;11.94;86.43
11223;BME280;5668;52.012;8.724;2023-12-28T12:51:07;99706.44;;;11.95;86.72
11223;BME280;5668;52.012;8.724;2023-12-28T12:53:35;99712.63;;;11.94;86.44
11223;BME280;5668;52.012;8.724;2023-12-28T12:56:03;99698.91;;;11.92;86.34
11223;BME280;5668;52.012;8.724;2023-12-28T12:58:32;99704.25;;;11.91;86.92
11223;BME280;5668;52.012;8.724;2023-12-28T13:00:59;99705.06;;;11.91;86.77
11223;BME280;5668;52.012;8.724;2023-12-28T13:03:30;99699.16;;;11.89;86.94
11223;BME280;5668;52.012;8.724;2023-12-28T13:05:57;99701.53;;;11.92;86.60
11223;BME280;5668;52.012;8.724;2023-12-28T13:08:24;99690.81;;;11.95;86.24
11223;BME280;5668;52.012;8.724;2023-12-28T13:10:52;99686.72;;;11.93;86.01